sensor_id;sensor_type;location;lat;lon;timestamp;P1;durP1;ratioP1;P2;durP2;ratioP2
286;SDS011;127;48.770;9.212;2022-08-19T00:02:03;29.47;;;17.60;;
286;SDS011;127;48.770;9.212;2022-08-19T00:04:33;26.67;;;17.03;;
286;SDS011;127;48.770;9.212;2022-08-19T00:07:05;29.50;;;17.83;;
286;SDS011;127;48.770;9.212;2022-08-19T00:09:36;27.30;;;17.03;;
286;SDS011;127;48.770;9.212;2022-08-19T00:12:04;23.90;;;15.70;;
286;SDS011;127;48.770;9.212;2022-08-19T00:14:33;30.90;;;18.57;;
286;SDS011;127;48.770;9.212;2022-08-19T00:17:08;30.80;;;17.77;;
286;SDS011;127;48.770;9.212;2022-08-19T00:19:39;27.23;;;16.50;;
286;SDS011;127;48.770;9.212;2022-08-19T00:22:08;25.90;;;16.00;;
286;SDS011;127;48.770;9.212;2022-08-19T00:24:37;38.07;;;17.47;;
286;SDS011;127;48.770;9.212;2022-08-19T00:27:06;23.83;;;16.90;;
286;SDS011;127;48.770;9.212;2022-08-19T00:29:35;29.90;;;18.30;;
286;SDS011;127;48.770;9.212;2022-08-19T00:32:10;30.57;;;18.40;;
286;SDS011;127;48.770;9.212;2022-08-19T00:34:41;29.70;;;17.37;;
286;SDS011;127;48.770;9.212;2022-08-19T00:37:09;29.43;;;16.73;;
286;SDS011;127;48.770;9.212;2022-08-19T00:39:38;27.27;;;17.10;;
286;SDS011;127;48.770;9.212;2022-08-19T00:42:07;28.43;;;17.83;;
286;SDS011;127;48.770;9.212;2022-08-19T00:44:36;30.43;;;17.90;;
286;SDS011;127;48.770;9.212;2022-08-19T00:47:04;28.83;;;16.73;;
286;SDS011;127;48.770;9.212;2022-08-19T00:49:37;29.77;;;16.30;;
286;SDS011;127;48.770;9.212;2022-08-19T00:55:08;29.80;;;17.47;;
286;SDS011;127;48.770;9.212;2022-08-19T00:57:38;27.43;;;16.17;;
286;SDS011;127;48.770;9.212;2022-08-19T01:00:11;29.97;;;17.30;;
286;SDS011;127;48.770;9.212;2022-08-19T01:02:42;29.53;;;18.17;;
286;SDS011;127;48.770;9.212;2022-08-19T01:05:14;31.20;;;17.03;;
286;SDS011;127;48.770;9.212;2022-08-19T01:07:51;28.73;;;18.23;;
286;SDS011;127;48.770;9.212;2022-08-19T01:10:21;28.40;;;17.10;;
286;SDS011;127;48.770;9.212;2022-08-19T01:12:52;27.17;;;16.80;;
286;SDS011;127;48.770;9.212;2022-08-19T01:15:24;26.83;;;16.93;;
286;SDS011;127;48.770;9.212;2022-08-19T01:17:56;31.53;;;17.27;;
286;SDS011;127;48.770;9.212;2022-08-19T01:20:33;28.40;;;17.57;;
286;SDS011;127;48.770;9.212;2022-08-19T01:23:06;30.07;;;17.90;;
286;SDS011;127;48.770;9.212;2022-08-19T01:25:35;27.70;;;17.47;;
286;SDS011;127;48.770;9.212;2022-08-19T01:28:14;30.00;;;16.27;;
286;SDS011;127;48.770;9.212;2022-08-19T01:30:45;29.47;;;17.43;;
286;SDS011;127;48.770;9.212;2022-08-19T01:33:14;30.00;;;16.23;;
286;SDS011;127;48.770;9.212;2022-08-19T01:35:44;28.70;;;17.27;;
286;SDS011;127;48.770;9.212;2022-08-19T01:38:22;35.57;;;18.77;;
286;SDS011;127;48.770;9.212;2022-08-19T01:40:56;40.17;;;19.87;;
286;SDS011;127;48.770;9.212;2022-08-19T01:43:25;29.77;;;17.87;;
286;SDS011;127;48.770;9.212;2022-08-19T01:45:54;30.50;;;18.37;;
286;SDS011;127;48.770;9.212;2022-08-19T01:48:23;36.97;;;18.90;;
286;SDS011;127;48.770;9.212;2022-08-19T01:50:53;30.37;;;18.60;;
286;SDS011;127;48.770;9.212;2022-08-19T01:53:27;34.23;;;18.10;;
286;SDS011;127;48.770;9.212;2022-08-19T01:55:56;35.40;;;20.13;;
286;SDS011;127;48.770;9.212;2022-08-19T01:59:05;35.43;;;18.53;;
286;SDS011;127;48.770;9.212;2022-08-19T02:01:33;32.10;;;18.63;;
286;SDS011;127;48.770;9.212;2022-08-19T02:04:04;33.60;;;20.10;;
286;SDS011;127;48.770;9.212;2022-08-19T02:06:33;29.67;;;17.73;;
286;SDS011;127;48.770;9.212;2022-08-19T02:09:09;35.43;;;21.23;;
286;SDS011;127;48.770;9.212;2022-08-19T02:11:38;32.30;;;17.87;;
286;SDS011;127;48.770;9.212;2022-08-19T02:14:07;32.63;;;18.63;;
286;SDS011;127;48.770;9.212;2022-08-19T02:16:36;36.47;;;20.80;;
286;SDS011;127;48.770;9.212;2022-08-19T02:19:08;33.87;;;21.07;;
286;SDS011;127;48.770;9.212;2022-08-19T02:21:37;38.60;;;20.90;;
286;SDS011;127;48.770;9.212;2022-08-19T02:24:06;33.73;;;18.53;;
286;SDS011;127;48.770;9.212;2022-08-19T02:26:37;34.07;;;18.60;;
286;SDS011;127;48.770;9.212;2022-08-19T02:29:06;36.60;;;21.00;;
286;SDS011;127;48.770;9.212;2022-08-19T02:31:37;34.33;;;19.00;;
286;SDS011;127;48.770;9.212;2022-08-19T02:34:06;35.07;;;20.00;;
286;SDS011;127;48.770;9.212;2022-08-19T02:36:35;41.13;;;21.70;;
286;SDS011;127;48.770;9.212;2022-08-19T02:39:04;39.50;;;20.57;;
286;SDS011;127;48.770;9.212;2022-08-19T02:41:33;33.57;;;18.53;;
286;SDS011;127;48.770;9.212;2022-08-19T02:44:03;38.13;;;22.37;;
286;SDS011;127;48.770;9.212;2022-08-19T02:46:32;37.63;;;21.60;;
286;SDS011;127;48.770;9.212;2022-08-19T02:49:02;39.07;;;22.90;;
286;SDS011;127;48.770;9.212;2022-08-19T02:51:37;42.17;;;23.30;;
286;SDS011;127;48.770;9.212;2022-08-19T02:54:08;47.13;;;23.43;;
286;SDS011;127;48.770;9.212;2022-08-19T02:56:41;43.00;;;21.77;;
286;SDS011;127;48.770;9.212;2022-08-19T02:59:14;41.70;;;23.90;;
286;SDS011;127;48.770;9.212;2022-08-19T03:01:44;42.87;;;23.63;;
286;SDS011;127;48.770;9.212;2022-08-19T03:04:14;43.60;;;24.80;;
286;SDS011;127;48.770;9.212;2022-08-19T03:06:44;46.00;;;24.20;;
286;SDS011;127;48.770;9.212;2022-08-19T03:09:15;46.77;;;25.07;;
286;SDS011;127;48.770;9.212;2022-08-19T03:11:47;42.70;;;25.67;;
286;SDS011;127;48.770;9.212;2022-08-19T03:14:16;44.00;;;24.60;;
286;SDS011;127;48.770;9.212;2022-08-19T03:16:46;50.03;;;24.70;;
286;SDS011;127;48.770;9.212;2022-08-19T03:19:17;50.47;;;24.90;;
286;SDS011;127;48.770;9.212;2022-08-19T03:21:47;42.43;;;23.47;;
286;SDS011;127;48.770;9.212;2022-08-19T03:24:18;45.80;;;25.53;;
286;SDS011;127;48.770;9.212;2022-08-19T03:26:53;47.70;;;25.67;;
286;SDS011;127;48.770;9.212;2022-08-19T03:29:23;50.50;;;26.67;;
286;SDS011;127;48.770;9.212;2022-08-19T03:32:01;52.07;;;26.10;;
286;SDS011;127;48.770;9.212;2022-08-19T03:34:33;48.57;;;26.10;;
286;SDS011;127;48.770;9.212;2022-08-19T03:37:08;50.90;;;27.73;;
286;SDS011;127;48.770;9.212;2022-08-19T03:39:40;45.93;;;27.33;;
286;SDS011;127;48.770;9.212;2022-08-19T03:42:14;49.93;;;27.20;;
286;SDS011;127;48.770;9.212;2022-08-19T03:44:43;51.07;;;27.57;;
286;SDS011;127;48.770;9.212;2022-08-19T03:47:12;56.77;;;27.13;;
286;SDS011;127;48.770;9.212;2022-08-19T03:49:45;48.07;;;26.67;;
286;SDS011;127;48.770;9.212;2022-08-19T03:52:14;50.13;;;26.50;;
286;SDS011;127;48.770;9.212;2022-08-19T03:54:43;47.17;;;27.00;;
286;SDS011;127;48.770;9.212;2022-08-19T03:57:21;51.20;;;27.77;;
286;SDS011;127;48.770;9.212;2022-08-19T03:59:50;51.07;;;26.20;;
286;SDS011;127;48.770;9.212;2022-08-19T04:02:19;49.87;;;26.33;;
286;SDS011;127;48.770;9.212;2022-08-19T04:04:53;55.40;;;28.83;;
286;SDS011;127;48.770;9.212;2022-08-19T04:07:22;53.73;;;28.87;;
286;SDS011;127;48.770;9.212;2022-08-19T04:09:51;52.87;;;27.47;;
286;SDS011;127;48.770;9.212;2022-08-19T04:12:22;52.30;;;26.60;;
286;SDS011;127;48.770;9.212;2022-08-19T04:14:51;49.80;;;27.80;;
286;SDS011;127;48.770;9.212;2022-08-19T04:17:19;50.17;;;27.70;;
286;SDS011;127;48.770;9.212;2022-08-19T04:19:53;51.50;;;28.00;;
286;SDS011;127;48.770;9.212;2022-08-19T04:22:24;58.27;;;29.00;;
286;SDS011;127;48.770;9.212;2022-08-19T04:24:55;55.83;;;30.70;;
286;SDS011;127;48.770;9.212;2022-08-19T04:27:26;56.60;;;29.80;;
286;SDS011;127;48.770;9.212;2022-08-19T04:29:56;56.53;;;30.00;;
286;SDS011;127;48.770;9.212;2022-08-19T04:32:25;53.83;;;29.67;;
286;SDS011;127;48.770;9.212;2022-08-19T04:34:55;57.37;;;31.07;;
286;SDS011;127;48.770;9.212;2022-08-19T04:37:25;55.33;;;29.07;;
286;SDS011;127;48.770;9.212;2022-08-19T04:39:56;52.33;;;26.83;;
286;SDS011;127;48.770;9.212;2022-08-19T04:42:40;49.30;;;29.33;;
286;SDS011;127;48.770;9.212;2022-08-19T04:45:19;55.20;;;30.47;;
286;SDS011;127;48.770;9.212;2022-08-19T04:47:53;52.90;;;29.20;;
286;SDS011;127;48.770;9.212;2022-08-19T04:50:26;45.33;;;26.77;;
286;SDS011;127;48.770;9.212;2022-08-19T04:52:58;46.03;;;26.60;;
286;SDS011;127;48.770;9.212;2022-08-19T04:55:30;53.40;;;28.67;;
286;SDS011;127;48.770;9.212;2022-08-19T04:58:03;52.50;;;29.63;;
286;SDS011;127;48.770;9.212;2022-08-19T05:00:32;49.90;;;29.30;;
286;SDS011;127;48.770;9.212;2022-08-19T05:03:01;46.47;;;27.30;;
286;SDS011;127;48.770;9.212;2022-08-19T05:05:30;45.20;;;25.93;;
286;SDS011;127;48.770;9.212;2022-08-19T05:07:59;49.23;;;28.80;;
286;SDS011;127;48.770;9.212;2022-08-19T05:10:27;50.27;;;28.17;;
286;SDS011;127;48.770;9.212;2022-08-19T05:12:56;50.97;;;28.40;;
286;SDS011;127;48.770;9.212;2022-08-19T05:15:28;53.90;;;28.47;;
286;SDS011;127;48.770;9.212;2022-08-19T05:17:56;50.93;;;28.03;;
286;SDS011;127;48.770;9.212;2022-08-19T05:20:38;52.50;;;29.83;;
286;SDS011;127;48.770;9.212;2022-08-19T05:23:19;52.13;;;28.67;;
286;SDS011;127;48.770;9.212;2022-08-19T05:25:51;50.03;;;27.63;;
286;SDS011;127;48.770;9.212;2022-08-19T05:28:22;53.70;;;29.30;;
286;SDS011;127;48.770;9.212;2022-08-19T05:30:54;48.77;;;28.40;;
286;SDS011;127;48.770;9.212;2022-08-19T05:33:23;50.53;;;29.87;;
286;SDS011;127;48.770;9.212;2022-08-19T05:35:52;59.27;;;29.07;;
286;SDS011;127;48.770;9.212;2022-08-19T05:38:21;50.00;;;27.93;;
286;SDS011;127;48.770;9.212;2022-08-19T05:40:51;53.30;;;30.73;;
286;SDS011;127;48.770;9.212;2022-08-19T05:43:20;51.50;;;30.25;;
286;SDS011;127;48.770;9.212;2022-08-19T05:45:49;48.63;;;25.63;;
286;SDS011;127;48.770;9.212;2022-08-19T05:48:20;49.93;;;28.37;;
286;SDS011;127;48.770;9.212;2022-08-19T05:50:49;44.10;;;26.27;;
286;SDS011;127;48.770;9.212;2022-08-19T05:53:18;52.63;;;27.43;;
286;SDS011;127;48.770;9.212;2022-08-19T05:58:46;45.20;;;26.10;;
286;SDS011;127;48.770;9.212;2022-08-19T06:01:15;57.63;;;28.37;;
286;SDS011;127;48.770;9.212;2022-08-19T06:03:48;57.50;;;30.13;;
286;SDS011;127;48.770;9.212;2022-08-19T06:06:17;46.00;;;27.10;;
286;SDS011;127;48.770;9.212;2022-08-19T06:08:46;47.13;;;26.90;;
286;SDS011;127;48.770;9.212;2022-08-19T06:11:17;50.63;;;27.97;;
286;SDS011;127;48.770;9.212;2022-08-19T06:13:48;50.37;;;29.07;;
286;SDS011;127;48.770;9.212;2022-08-19T06:16:18;53.73;;;28.27;;
286;SDS011;127;48.770;9.212;2022-08-19T06:18:52;48.87;;;28.33;;
286;SDS011;127;48.770;9.212;2022-08-19T06:21:22;46.80;;;26.83;;
286;SDS011;127;48.770;9.212;2022-08-19T06:23:53;50.90;;;27.93;;
286;SDS011;127;48.770;9.212;2022-08-19T06:26:26;51.03;;;26.90;;
286;SDS011;127;48.770;9.212;2022-08-19T06:29:00;56.37;;;30.27;;
286;SDS011;127;48.770;9.212;2022-08-19T06:31:31;58.70;;;30.98;;
286;SDS011;127;48.770;9.212;2022-08-19T06:34:04;64.43;;;29.70;;
286;SDS011;127;48.770;9.212;2022-08-19T06:36:34;64.20;;;29.90;;
286;SDS011;127;48.770;9.212;2022-08-19T06:39:07;63.00;;;32.50;;
286;SDS011;127;48.770;9.212;2022-08-19T06:41:38;55.20;;;29.93;;
286;SDS011;127;48.770;9.212;2022-08-19T06:44:08;55.23;;;29.60;;
286;SDS011;127;48.770;9.212;2022-08-19T06:46:37;56.27;;;32.00;;
286;SDS011;127;48.770;9.212;2022-08-19T06:49:11;60.03;;;31.23;;
286;SDS011;127;48.770;9.212;2022-08-19T06:51:41;62.23;;;33.47;;
286;SDS011;127;48.770;9.212;2022-08-19T06:54:13;57.67;;;32.80;;
286;SDS011;127;48.770;9.212;2022-08-19T06:56:43;54.83;;;30.50;;
286;SDS011;127;48.770;9.212;2022-08-19T06:59:12;64.13;;;34.10;;
286;SDS011;127;48.770;9.212;2022-08-19T07:01:45;56.40;;;29.53;;
286;SDS011;127;48.770;9.212;2022-08-19T07:04:21;52.93;;;31.73;;
286;SDS011;127;48.770;9.212;2022-08-19T07:06:58;59.90;;;32.43;;
286;SDS011;127;48.770;9.212;2022-08-19T07:09:28;75.23;;;33.80;;
286;SDS011;127;48.770;9.212;2022-08-19T07:12:03;60.27;;;31.00;;
286;SDS011;127;48.770;9.212;2022-08-19T07:14:34;57.27;;;32.00;;
286;SDS011;127;48.770;9.212;2022-08-19T07:17:05;59.20;;;31.97;;
286;SDS011;127;48.770;9.212;2022-08-19T07:19:38;53.73;;;30.97;;
286;SDS011;127;48.770;9.212;2022-08-19T07:22:08;57.83;;;30.70;;
286;SDS011;127;48.770;9.212;2022-08-19T07:24:43;54.03;;;29.40;;
286;SDS011;127;48.770;9.212;2022-08-19T07:27:14;54.07;;;28.67;;
286;SDS011;127;48.770;9.212;2022-08-19T07:29:43;60.20;;;29.50;;
286;SDS011;127;48.770;9.212;2022-08-19T07:32:12;61.63;;;29.57;;
286;SDS011;127;48.770;9.212;2022-08-19T07:34:44;58.03;;;28.33;;
286;SDS011;127;48.770;9.212;2022-08-19T07:37:13;44.17;;;26.73;;
286;SDS011;127;48.770;9.212;2022-08-19T07:39:42;58.20;;;30.63;;
286;SDS011;127;48.770;9.212;2022-08-19T07:42:11;54.97;;;30.07;;
286;SDS011;127;48.770;9.212;2022-08-19T07:44:39;54.13;;;27.27;;
286;SDS011;127;48.770;9.212;2022-08-19T07:47:08;51.87;;;29.20;;
286;SDS011;127;48.770;9.212;2022-08-19T07:49:37;43.00;;;26.13;;
286;SDS011;127;48.770;9.212;2022-08-19T07:52:10;55.80;;;30.00;;
286;SDS011;127;48.770;9.212;2022-08-19T07:54:39;52.10;;;30.07;;
286;SDS011;127;48.770;9.212;2022-08-19T07:57:08;61.97;;;30.70;;
286;SDS011;127;48.770;9.212;2022-08-19T07:59:37;55.33;;;29.83;;
286;SDS011;127;48.770;9.212;2022-08-19T08:02:06;53.33;;;29.83;;
286;SDS011;127;48.770;9.212;2022-08-19T08:04:35;52.90;;;30.10;;
286;SDS011;127;48.770;9.212;2022-08-19T08:07:19;53.90;;;31.03;;
286;SDS011;127;48.770;9.212;2022-08-19T08:10:00;52.23;;;31.27;;
286;SDS011;127;48.770;9.212;2022-08-19T08:12:32;53.87;;;29.10;;
286;SDS011;127;48.770;9.212;2022-08-19T08:15:09;56.40;;;31.97;;
286;SDS011;127;48.770;9.212;2022-08-19T08:17:43;60.30;;;31.40;;
286;SDS011;127;48.770;9.212;2022-08-19T08:20:14;63.97;;;33.50;;
286;SDS011;127;48.770;9.212;2022-08-19T08:22:46;70.30;;;33.80;;
286;SDS011;127;48.770;9.212;2022-08-19T08:25:28;66.17;;;34.17;;
286;SDS011;127;48.770;9.212;2022-08-19T08:27:57;65.97;;;34.50;;
286;SDS011;127;48.770;9.212;2022-08-19T08:30:28;57.60;;;32.13;;
286;SDS011;127;48.770;9.212;2022-08-19T08:33:01;67.03;;;35.53;;
286;SDS011;127;48.770;9.212;2022-08-19T08:35:29;65.10;;;34.03;;
286;SDS011;127;48.770;9.212;2022-08-19T08:38:01;76.03;;;35.90;;
286;SDS011;127;48.770;9.212;2022-08-19T08:40:34;65.93;;;33.90;;
286;SDS011;127;48.770;9.212;2022-08-19T08:43:24;64.03;;;34.20;;
286;SDS011;127;48.770;9.212;2022-08-19T08:46:04;70.57;;;35.80;;
286;SDS011;127;48.770;9.212;2022-08-19T08:48:37;74.80;;;36.43;;
286;SDS011;127;48.770;9.212;2022-08-19T08:51:10;68.60;;;36.20;;
286;SDS011;127;48.770;9.212;2022-08-19T08:53:44;79.50;;;34.93;;
286;SDS011;127;48.770;9.212;2022-08-19T08:56:17;64.30;;;36.03;;
286;SDS011;127;48.770;9.212;2022-08-19T08:58:49;64.03;;;34.23;;
286;SDS011;127;48.770;9.212;2022-08-19T09:01:24;56.30;;;31.23;;
286;SDS011;127;48.770;9.212;2022-08-19T09:03:53;63.87;;;33.97;;
286;SDS011;127;48.770;9.212;2022-08-19T09:06:23;55.87;;;30.40;;
286;SDS011;127;48.770;9.212;2022-08-19T09:09:02;53.03;;;29.70;;
286;SDS011;127;48.770;9.212;2022-08-19T09:11:39;56.97;;;31.17;;
286;SDS011;127;48.770;9.212;2022-08-19T09:14:28;51.87;;;30.20;;
286;SDS011;127;48.770;9.212;2022-08-19T09:17:07;47.10;;;27.57;;
286;SDS011;127;48.770;9.212;2022-08-19T09:19:46;46.37;;;27.40;;
286;SDS011;127;48.770;9.212;2022-08-19T09:22:22;55.10;;;28.93;;
286;SDS011;127;48.770;9.212;2022-08-19T09:24:54;56.83;;;30.50;;
286;SDS011;127;48.770;9.212;2022-08-19T09:27:24;54.10;;;30.30;;
286;SDS011;127;48.770;9.212;2022-08-19T09:29:54;54.60;;;29.90;;
286;SDS011;127;48.770;9.212;2022-08-19T09:32:23;54.40;;;31.70;;
286;SDS011;127;48.770;9.212;2022-08-19T09:34:52;53.27;;;28.37;;
286;SDS011;127;48.770;9.212;2022-08-19T09:37:27;46.63;;;25.63;;
286;SDS011;127;48.770;9.212;2022-08-19T09:40:01;49.47;;;28.23;;
286;SDS011;127;48.770;9.212;2022-08-19T09:42:32;48.43;;;26.47;;
286;SDS011;127;48.770;9.212;2022-08-19T09:45:08;46.43;;;26.10;;
286;SDS011;127;48.770;9.212;2022-08-19T09:47:38;47.67;;;27.70;;
286;SDS011;127;48.770;9.212;2022-08-19T09:50:07;64.47;;;28.93;;
286;SDS011;127;48.770;9.212;2022-08-19T09:52:38;50.40;;;30.30;;
286;SDS011;127;48.770;9.212;2022-08-19T09:55:12;55.50;;;31.37;;
286;SDS011;127;48.770;9.212;2022-08-19T09:57:41;53.83;;;32.27;;
286;SDS011;127;48.770;9.212;2022-08-19T10:00:10;52.47;;;29.10;;
286;SDS011;127;48.770;9.212;2022-08-19T10:02:39;48.50;;;26.90;;
286;SDS011;127;48.770;9.212;2022-08-19T10:05:08;51.10;;;26.90;;
286;SDS011;127;48.770;9.212;2022-08-19T10:07:49;47.13;;;27.50;;
286;SDS011;127;48.770;9.212;2022-08-19T10:10:21;54.43;;;29.90;;
286;SDS011;127;48.770;9.212;2022-08-19T10:12:52;49.40;;;27.27;;
286;SDS011;127;48.770;9.212;2022-08-19T10:15:21;53.23;;;28.10;;
286;SDS011;127;48.770;9.212;2022-08-19T10:17:49;51.23;;;28.10;;
286;SDS011;127;48.770;9.212;2022-08-19T10:20:18;55.83;;;28.60;;
286;SDS011;127;48.770;9.212;2022-08-19T10:22:47;45.73;;;27.53;;
286;SDS011;127;48.770;9.212;2022-08-19T10:25:16;47.50;;;27.03;;
286;SDS011;127;48.770;9.212;2022-08-19T10:27:48;59.07;;;30.23;;
286;SDS011;127;48.770;9.212;2022-08-19T10:30:17;46.00;;;28.60;;
286;SDS011;127;48.770;9.212;2022-08-19T10:32:45;54.90;;;29.93;;
286;SDS011;127;48.770;9.212;2022-08-19T10:35:14;49.37;;;27.40;;
286;SDS011;127;48.770;9.212;2022-08-19T10:37:44;44.00;;;26.40;;
286;SDS011;127;48.770;9.212;2022-08-19T10:40:12;50.73;;;25.80;;
286;SDS011;127;48.770;9.212;2022-08-19T10:42:42;46.70;;;26.63;;
286;SDS011;127;48.770;9.212;2022-08-19T10:45:14;37.30;;;23.80;;
286;SDS011;127;48.770;9.212;2022-08-19T10:47:42;49.00;;;25.63;;
286;SDS011;127;48.770;9.212;2022-08-19T10:50:11;47.00;;;28.10;;
286;SDS011;127;48.770;9.212;2022-08-19T10:52:52;42.13;;;24.00;;
286;SDS011;127;48.770;9.212;2022-08-19T10:55:22;46.67;;;25.10;;
286;SDS011;127;48.770;9.212;2022-08-19T10:58:08;44.30;;;23.43;;
286;SDS011;127;48.770;9.212;2022-08-19T11:00:41;43.93;;;22.47;;
286;SDS011;127;48.770;9.212;2022-08-19T11:03:10;36.70;;;21.87;;
286;SDS011;127;48.770;9.212;2022-08-19T11:05:39;39.30;;;21.93;;
286;SDS011;127;48.770;9.212;2022-08-19T11:08:08;32.27;;;21.40;;
286;SDS011;127;48.770;9.212;2022-08-19T11:10:40;38.80;;;20.10;;
286;SDS011;127;48.770;9.212;2022-08-19T11:13:10;33.53;;;19.07;;
286;SDS011;127;48.770;9.212;2022-08-19T11:15:42;27.70;;;17.20;;
286;SDS011;127;48.770;9.212;2022-08-19T11:18:12;30.40;;;19.10;;
286;SDS011;127;48.770;9.212;2022-08-19T11:20:41;27.93;;;17.60;;
286;SDS011;127;48.770;9.212;2022-08-19T11:23:11;29.40;;;17.93;;
286;SDS011;127;48.770;9.212;2022-08-19T11:25:40;31.27;;;18.67;;
286;SDS011;127;48.770;9.212;2022-08-19T11:28:10;28.40;;;17.33;;
286;SDS011;127;48.770;9.212;2022-08-19T11:30:42;30.70;;;17.60;;
286;SDS011;127;48.770;9.212;2022-08-19T11:33:11;26.70;;;16.63;;
286;SDS011;127;48.770;9.212;2022-08-19T11:35:41;23.10;;;14.87;;
286;SDS011;127;48.770;9.212;2022-08-19T11:38:10;33.60;;;19.13;;
286;SDS011;127;48.770;9.212;2022-08-19T11:40:39;27.07;;;15.53;;
286;SDS011;127;48.770;9.212;2022-08-19T11:43:09;27.00;;;17.13;;
286;SDS011;127;48.770;9.212;2022-08-19T11:45:37;32.27;;;18.27;;
286;SDS011;127;48.770;9.212;2022-08-19T11:48:12;32.90;;;17.97;;
286;SDS011;127;48.770;9.212;2022-08-19T11:50:40;23.13;;;16.23;;
286;SDS011;127;48.770;9.212;2022-08-19T11:53:09;31.93;;;17.47;;
286;SDS011;127;48.770;9.212;2022-08-19T11:55:38;25.47;;;18.27;;
286;SDS011;127;48.770;9.212;2022-08-19T11:58:07;27.90;;;17.63;;
286;SDS011;127;48.770;9.212;2022-08-19T12:00:37;31.10;;;19.40;;
286;SDS011;127;48.770;9.212;2022-08-19T12:03:07;29.07;;;18.50;;
286;SDS011;127;48.770;9.212;2022-08-19T12:05:39;26.00;;;18.30;;
286;SDS011;127;48.770;9.212;2022-08-19T12:08:10;28.60;;;17.13;;
286;SDS011;127;48.770;9.212;2022-08-19T12:10:40;26.23;;;18.20;;
286;SDS011;127;48.770;9.212;2022-08-19T12:13:10;32.27;;;17.93;;
286;SDS011;127;48.770;9.212;2022-08-19T12:15:43;30.57;;;18.63;;
286;SDS011;127;48.770;9.212;2022-08-19T12:18:13;33.57;;;17.87;;
286;SDS011;127;48.770;9.212;2022-08-19T12:20:45;27.00;;;18.10;;
286;SDS011;127;48.770;9.212;2022-08-19T12:23:14;27.23;;;16.97;;
286;SDS011;127;48.770;9.212;2022-08-19T12:25:44;33.93;;;19.50;;
286;SDS011;127;48.770;9.212;2022-08-19T12:28:16;36.40;;;21.40;;
286;SDS011;127;48.770;9.212;2022-08-19T12:30:46;37.27;;;23.70;;
286;SDS011;127;48.770;9.212;2022-08-19T12:33:16;36.27;;;22.20;;
286;SDS011;127;48.770;9.212;2022-08-19T12:35:51;40.80;;;26.17;;
286;SDS011;127;48.770;9.212;2022-08-19T12:38:20;44.87;;;28.10;;
286;SDS011;127;48.770;9.212;2022-08-19T12:40:51;42.70;;;25.20;;
286;SDS011;127;48.770;9.212;2022-08-19T12:43:20;35.23;;;21.33;;
286;SDS011;127;48.770;9.212;2022-08-19T12:45:49;40.97;;;26.10;;
286;SDS011;127;48.770;9.212;2022-08-19T12:48:18;39.63;;;23.80;;
286;SDS011;127;48.770;9.212;2022-08-19T12:50:46;41.40;;;25.93;;
286;SDS011;127;48.770;9.212;2022-08-19T12:53:19;42.27;;;26.67;;
286;SDS011;127;48.770;9.212;2022-08-19T12:55:53;41.57;;;25.00;;
286;SDS011;127;48.770;9.212;2022-08-19T12:58:24;40.93;;;23.40;;
286;SDS011;127;48.770;9.212;2022-08-19T13:00:56;40.50;;;23.63;;
286;SDS011;127;48.770;9.212;2022-08-19T13:03:27;43.10;;;26.00;;
286;SDS011;127;48.770;9.212;2022-08-19T13:05:56;40.07;;;24.50;;
286;SDS011;127;48.770;9.212;2022-08-19T13:08:27;37.73;;;21.97;;
286;SDS011;127;48.770;9.212;2022-08-19T13:10:56;37.83;;;23.50;;
286;SDS011;127;48.770;9.212;2022-08-19T13:13:26;43.57;;;24.63;;
286;SDS011;127;48.770;9.212;2022-08-19T13:15:59;43.67;;;25.43;;
286;SDS011;127;48.770;9.212;2022-08-19T13:18:30;50.50;;;24.57;;
286;SDS011;127;48.770;9.212;2022-08-19T13:21:01;39.80;;;24.17;;
286;SDS011;127;48.770;9.212;2022-08-19T13:23:34;47.67;;;29.03;;
286;SDS011;127;48.770;9.212;2022-08-19T13:26:04;61.37;;;32.27;;
286;SDS011;127;48.770;9.212;2022-08-19T13:28:34;48.60;;;28.87;;
286;SDS011;127;48.770;9.212;2022-08-19T13:31:16;64.67;;;28.47;;
286;SDS011;127;48.770;9.212;2022-08-19T13:33:57;51.97;;;30.00;;
286;SDS011;127;48.770;9.212;2022-08-19T13:36:28;62.93;;;34.60;;
286;SDS011;127;48.770;9.212;2022-08-19T13:39:01;50.57;;;30.07;;
286;SDS011;127;48.770;9.212;2022-08-19T13:41:31;61.23;;;34.50;;
286;SDS011;127;48.770;9.212;2022-08-19T13:43:59;57.77;;;31.00;;
286;SDS011;127;48.770;9.212;2022-08-19T13:46:29;56.40;;;32.60;;
286;SDS011;127;48.770;9.212;2022-08-19T13:48:57;63.70;;;33.17;;
286;SDS011;127;48.770;9.212;2022-08-19T13:51:27;61.30;;;33.23;;
286;SDS011;127;48.770;9.212;2022-08-19T13:53:56;61.43;;;32.53;;
286;SDS011;127;48.770;9.212;2022-08-19T13:56:27;60.57;;;32.23;;
286;SDS011;127;48.770;9.212;2022-08-19T13:58:57;52.63;;;30.93;;
286;SDS011;127;48.770;9.212;2022-08-19T14:01:26;59.67;;;32.63;;
286;SDS011;127;48.770;9.212;2022-08-19T14:03:55;53.83;;;31.77;;
286;SDS011;127;48.770;9.212;2022-08-19T14:06:24;59.60;;;33.30;;
286;SDS011;127;48.770;9.212;2022-08-19T14:08:53;65.27;;;35.93;;
286;SDS011;127;48.770;9.212;2022-08-19T14:11:23;61.80;;;34.80;;
286;SDS011;127;48.770;9.212;2022-08-19T14:13:55;61.97;;;34.83;;
286;SDS011;127;48.770;9.212;2022-08-19T14:16:26;68.03;;;36.80;;
286;SDS011;127;48.770;9.212;2022-08-19T14:18:55;69.37;;;38.00;;
286;SDS011;127;48.770;9.212;2022-08-19T14:21:24;73.37;;;38.10;;
286;SDS011;127;48.770;9.212;2022-08-19T14:23:53;81.33;;;42.07;;
286;SDS011;127;48.770;9.212;2022-08-19T14:26:22;82.50;;;42.07;;
286;SDS011;127;48.770;9.212;2022-08-19T14:28:53;69.37;;;36.00;;
286;SDS011;127;48.770;9.212;2022-08-19T14:31:22;70.03;;;40.13;;
286;SDS011;127;48.770;9.212;2022-08-19T14:33:53;74.83;;;39.37;;
286;SDS011;127;48.770;9.212;2022-08-19T14:36:22;93.13;;;46.97;;
286;SDS011;127;48.770;9.212;2022-08-19T14:38:51;83.03;;;42.70;;
286;SDS011;127;48.770;9.212;2022-08-19T14:41:21;78.70;;;41.53;;
286;SDS011;127;48.770;9.212;2022-08-19T14:43:56;73.37;;;38.00;;
286;SDS011;127;48.770;9.212;2022-08-19T14:46:26;65.90;;;38.10;;
286;SDS011;127;48.770;9.212;2022-08-19T14:48:58;77.87;;;38.60;;
286;SDS011;127;48.770;9.212;2022-08-19T14:51:29;66.67;;;36.40;;
286;SDS011;127;48.770;9.212;2022-08-19T14:53:59;69.90;;;33.57;;
286;SDS011;127;48.770;9.212;2022-08-19T14:56:29;55.27;;;32.43;;
286;SDS011;127;48.770;9.212;2022-08-19T14:59:02;57.70;;;33.30;;
286;SDS011;127;48.770;9.212;2022-08-19T15:01:32;57.23;;;32.97;;
286;SDS011;127;48.770;9.212;2022-08-19T15:04:01;48.40;;;30.50;;
286;SDS011;127;48.770;9.212;2022-08-19T15:06:30;50.87;;;30.63;;
286;SDS011;127;48.770;9.212;2022-08-19T15:08:59;51.60;;;30.77;;
286;SDS011;127;48.770;9.212;2022-08-19T15:11:28;49.40;;;29.47;;
286;SDS011;127;48.770;9.212;2022-08-19T15:14:12;55.97;;;29.93;;
286;SDS011;127;48.770;9.212;2022-08-19T15:16:41;40.87;;;25.70;;
286;SDS011;127;48.770;9.212;2022-08-19T15:19:10;49.03;;;28.87;;
286;SDS011;127;48.770;9.212;2022-08-19T15:21:39;46.53;;;28.60;;
286;SDS011;127;48.770;9.212;2022-08-19T15:24:08;41.27;;;24.67;;
286;SDS011;127;48.770;9.212;2022-08-19T15:26:36;39.97;;;24.47;;
286;SDS011;127;48.770;9.212;2022-08-19T15:29:08;43.70;;;25.87;;
286;SDS011;127;48.770;9.212;2022-08-19T15:31:38;39.83;;;24.37;;
286;SDS011;127;48.770;9.212;2022-08-19T15:34:07;40.90;;;22.97;;
286;SDS011;127;48.770;9.212;2022-08-19T15:36:36;40.33;;;25.23;;
286;SDS011;127;48.770;9.212;2022-08-19T15:39:05;33.13;;;20.67;;
286;SDS011;127;48.770;9.212;2022-08-19T15:41:34;40.60;;;25.80;;
286;SDS011;127;48.770;9.212;2022-08-19T15:44:08;39.27;;;23.80;;
286;SDS011;127;48.770;9.212;2022-08-19T15:46:39;38.87;;;23.97;;